Time;durP1;ratioP1;P1;durP2;ratioP2;P2;SDS_P1;SDS_P2;PMS_P1;PMS_P2;Temp;Humidity;BMP_temperature;BMP_pressure;BME280_temperature;BME280_humidity;BME280_pressure;Samples;Min_cycle;Max_cycle;Signal;HPM_P1;HPM_P2
2022/06/29 00:01:05;;;;;;;6.53;5.13;;;19.10;96.70;;;;;;5032709;28;20430;-90
2022/06/29 00:04:06;;;;;;;5.90;5.00;;;19.10;96.90;;;;;;5026056;28;20460;-90
2022/06/29 00:06:54;;;;;;;7.10;5.20;;;19.10;96.80;;;;;;5031260;28;20471;-90
2022/06/29 00:09:26;;;;;;;6.40;5.50;;;19.10;96.90;;;;;;5033151;28;20442;-90
2022/06/29 00:11:55;;;;;;;6.73;5.50;;;19.00;97.20;;;;;;5021167;28;20493;-90
2022/06/29 00:14:46;;;;;;;6.90;5.47;;;19.00;97.20;;;;;;5051520;28;20461;-90
2022/06/29 00:17:15;;;;;;;6.20;5.13;;;19.00;97.30;;;;;;5020050;28;20545;-89
2022/06/29 00:20:17;;;;;;;9.30;5.97;;;19.00;97.30;;;;;;5033628;28;20442;-90
2022/06/29 00:23:45;;;;;;;7.37;5.30;;;19.00;97.30;;;;;;5026750;28;20452;-89
2022/06/29 00:26:36;;;;;;;6.53;5.63;;;19.00;97.30;;;;;;4954846;29;20434;-90
2022/06/29 00:29:37;;;;;;;6.90;6.13;;;18.90;97.30;;;;;;4940994;28;20455;-90
2022/06/29 00:32:35;;;;;;;7.33;6.00;;;18.90;97.30;;;;;;5030782;28;20505;-91
2022/06/29 00:35:16;;;;;;;8.57;5.87;;;18.90;97.30;;;;;;4983900;28;20852;-90
2022/06/29 00:38:26;;;;;;;9.13;5.73;;;18.90;97.30;;;;;;5036676;28;20531;-90
2022/06/29 00:41:25;;;;;;;9.67;5.70;;;18.80;97.30;;;;;;5036665;28;21039;-89
2022/06/29 00:43:56;;;;;;;7.70;6.37;;;18.80;97.30;;;;;;5036474;28;20414;-91
2022/06/29 00:46:22;;;;;;;7.50;5.80;;;18.70;97.30;;;;;;5039197;28;20410;-90
2022/06/29 00:48:53;;;;;;;6.93;5.90;;;18.70;97.30;;;;;;5037772;28;20521;-89
2022/06/29 00:54:18;;;;;;;;;;;;;;;;;;;;;
2022/06/29 00:56:55;;;;;;;7.03;5.40;;;18.60;97.30;;;;;;5052557;28;20426;-89
2022/06/29 00:59:47;;;;;;;6.13;4.93;;;18.60;97.30;;;;;;5038460;28;20448;-89
2022/06/29 01:02:28;;;;;;;7.30;5.47;;;18.50;97.30;;;;;;5027946;28;20426;-89
2022/06/29 01:05:26;;;;;;;9.90;6.20;;;18.50;97.30;;;;;;5034842;28;20501;-89
2022/06/29 01:08:14;;;;;;;8.53;6.20;;;18.40;97.30;;;;;;5029813;28;20454;-89
2022/06/29 01:11:06;;;;;;;10.70;6.17;;;18.40;97.30;;;;;;4940051;29;20473;-89
2022/06/29 01:14:06;;;;;;;7.70;5.80;;;18.40;97.30;;;;;;4996342;28;20429;-90
2022/06/29 01:20:26;;;;;;;8.73;5.43;;;18.30;97.30;;;;;;4897694;28;20467;-90
2022/06/29 01:23:26;;;;;;;7.33;5.73;;;18.20;97.30;;;;;;5053527;28;20412;-89
2022/06/29 01:26:26;;;;;;;9.47;6.10;;;18.20;97.30;;;;;;5053305;28;20510;-90
2022/06/29 01:29:30;;;;;;;;;;;;;;;;;;;;;
2022/06/29 01:31:57;;;;;;;8.53;6.33;;;18.10;97.30;;;;;;5053138;28;20982;-90
2022/06/29 01:34:36;;;;;;;9.23;6.83;;;18.10;97.30;;;;;;5035190;28;20422;-90
2022/06/29 01:37:05;;;;;;;9.00;6.23;;;18.10;97.30;;;;;;5036723;28;20468;-89
2022/06/29 01:39:44;;;;;;;8.53;6.50;;;18.00;97.30;;;;;;5034226;28;20461;-89
2022/06/29 01:42:36;;;;;;;8.80;6.07;;;18.00;97.30;;;;;;5032927;28;20431;-89
2022/06/29 01:45:25;;;;;;;8.60;6.50;;;18.00;97.30;;;;;;5030187;28;20460;-89
2022/06/29 01:47:57;;;;;;;7.93;5.77;;;17.90;97.30;;;;;;5037877;28;20418;-89
2022/06/29 01:50:25;;;;;;;8.63;6.10;;;17.90;97.30;;;;;;5037796;28;20453;-89
2022/06/29 01:56:56;;;;;;;7.63;5.80;;;17.80;97.30;;;;;;5024976;28;20541;-91
2022/06/29 01:59:55;;;;;;;9.10;6.30;;;17.80;97.30;;;;;;5034491;28;20503;-91
2022/06/29 02:02:27;;;;;;;8.60;5.90;;;17.70;97.30;;;;;;5022022;28;20528;-90
2022/06/29 02:05:26;;;;;;;17.43;6.97;;;17.70;97.30;;;;;;5034801;28;20426;-91
2022/06/29 02:08:05;;;;;;;9.83;6.70;;;17.70;97.30;;;;;;5052916;28;20419;-89
2022/06/29 02:10:44;;;;;;;10.53;6.80;;;17.60;97.30;;;;;;5026718;28;20481;-89
2022/06/29 02:13:56;;;;;;;11.00;6.77;;;17.60;97.30;;;;;;5034667;28;20996;-90
2022/06/29 02:16:24;;;;;;;8.97;6.47;;;17.60;97.30;;;;;;5027151;28;20426;-90
2022/06/29 02:18:56;;;;;;;15.10;7.87;;;17.50;97.30;;;;;;5034053;28;20497;-90
2022/06/29 02:22:05;;;;;;;;;;;;;;;;;;;;;
2022/06/29 02:24:46;;;;;;;8.40;6.20;;;17.50;97.30;;;;;;5054475;28;20422;-89
2022/06/29 02:28:05;;;;;;;8.17;5.93;;;17.40;97.30;;;;;;5037002;28;20472;-90
2022/06/29 02:36:44;;;;;;;9.77;6.37;;;17.40;97.30;;;;;;5035084;28;20398;-89
2022/06/29 02:40:15;;;;;;;10.30;6.20;;;17.40;97.30;;;;;;5035041;28;20469;-89
2022/06/29 02:43:06;;;;;;;6.90;5.90;;;17.50;97.30;;;;;;4945594;28;20553;-89
2022/06/29 02:46:06;;;;;;;9.20;6.60;;;17.50;97.30;;;;;;4953298;29;20439;-89
2022/06/29 02:48:35;;;;;;;11.60;6.70;;;17.50;97.30;;;;;;5010582;28;20559;-90
2022/06/29 02:51:06;;;;;;;8.73;5.87;;;17.50;97.30;;;;;;5011991;28;20936;-89
2022/06/29 02:54:13;;;;;;;8.90;6.60;;;17.50;97.30;;;;;;4994577;28;20435;-90
2022/06/29 02:56:46;;;;;;;13.30;6.50;;;17.50;97.30;;;;;;4986642;28;20420;-89
2022/06/29 02:59:26;;;;;;;8.57;5.83;;;17.50;97.30;;;;;;4994279;28;20478;-89
2022/06/29 03:04:56;;;;;;;7.70;6.00;;;17.50;97.30;;;;;;4982892;28;20499;-89
2022/06/29 03:07:55;;;;;;;9.67;6.40;;;17.50;97.30;;;;;;4982242;28;20436;-89
2022/06/29 03:10:27;;;;;;;8.37;6.73;;;17.60;97.30;;;;;;4996215;28;20452;-89
2022/06/29 03:13:07;;;;;;;10.20;6.13;;;17.60;97.30;;;;;;5014097;28;20455;-89
2022/06/29 03:15:35;;;;;;;10.37;6.73;;;17.60;97.30;;;;;;4996039;28;20520;-88
2022/06/29 03:18:15;;;;;;;9.10;6.63;;;17.60;97.30;;;;;;4993352;28;20465;-89
2022/06/29 03:20:47;;;;;;;7.70;6.23;;;17.70;97.30;;;;;;4994333;28;21012;-90
2022/06/29 03:23:16;;;;;;;8.27;6.13;;;17.70;97.30;;;;;;4993637;28;20475;-89
2022/06/29 03:26:17;;;;;;;;;;;;;;;;;;;;;
2022/06/29 03:28:48;;;;;;;8.57;6.13;;;17.70;97.30;;;;;;4999934;28;20408;-90
2022/06/29 03:31:16;;;;;;;7.77;6.00;;;17.70;97.30;;;;;;4993569;28;20489;-89
2022/06/29 03:33:46;;;;;;;11.90;6.63;;;17.70;97.30;;;;;;4994067;28;20721;-90
2022/06/29 03:39:48;;;;;;;9.23;6.60;;;17.70;97.30;;;;;;5005591;28;20524;-89
2022/06/29 03:42:16;;;;;;;11.70;5.93;;;17.70;97.30;;;;;;5015767;28;20439;-89
2022/06/29 03:44:59;;;;;;;8.43;5.77;;;17.70;97.30;;;;;;5015216;28;20506;-89
2022/06/29 03:47:35;;;;;;;10.70;6.70;;;17.70;97.30;;;;;;5015375;28;20497;-89
2022/06/29 03:50:16;;;;;;;10.30;6.90;;;17.70;97.30;;;;;;5015284;28;20449;-89
2022/06/29 03:56:26;;;;;;;10.40;6.70;;;17.80;97.30;;;;;;4951863;28;20423;-90
2022/06/29 03:59:46;;;;;;;8.70;6.90;;;17.80;97.30;;;;;;4951382;28;20470;-89
2022/06/29 04:02:25;;;;;;;13.33;6.50;;;17.80;97.30;;;;;;4949297;29;20188;-89
2022/06/29 04:04:56;;;;;;;7.37;6.40;;;17.80;97.30;;;;;;4949161;29;20498;-87
2022/06/29 04:07:35;;;;;;;8.40;6.43;;;17.80;97.30;;;;;;4937416;29;20427;-86
2022/06/29 04:10:16;;;;;;;8.83;6.30;;;17.80;97.30;;;;;;4932596;29;20822;-87
2022/06/29 04:12:47;;;;;;;7.23;5.63;;;17.80;97.30;;;;;;4949588;29;20419;-89
2022/06/29 04:15:15;;;;;;;8.73;6.20;;;17.80;97.30;;;;;;4933283;29;20479;-88
2022/06/29 04:17:47;;;;;;;6.87;5.73;;;17.80;97.30;;;;;;4947002;29;20887;-89
2022/06/29 04:23:00;;;;;;;12.47;6.57;;;17.90;97.30;;;;;;5033474;28;20765;-84
2022/06/29 04:25:26;;;;;;;10.33;7.40;;;17.90;97.30;;;;;;5015728;28;20936;-84
2022/06/29 04:27:51;;;;;;;9.77;7.30;;;17.90;97.30;;;;;;5014812;28;20477;-84
2022/06/29 04:30:17;;;;;;;8.00;6.23;;;17.90;97.30;;;;;;5015569;28;20427;-84
2022/06/29 04:32:42;;;;;;;7.63;6.43;;;17.90;97.30;;;;;;5015629;28;20188;-84
2022/06/29 04:35:08;;;;;;;7.43;6.23;;;18.00;97.30;;;;;;5015792;28;20208;-83
2022/06/29 04:37:33;;;;;;;7.33;6.30;;;18.00;97.30;;;;;;5015055;28;20232;-86
2022/06/29 04:40:03;;;;;;;11.70;6.93;;;18.00;97.30;;;;;;5014936;28;20172;-86
2022/06/29 04:42:28;;;;;;;10.97;6.27;;;18.00;97.30;;;;;;5015423;28;20553;-86
2022/06/29 04:44:54;;;;;;;12.23;7.10;;;18.10;97.30;;;;;;5015208;28;20501;-86
2022/06/29 04:47:20;;;;;;;11.03;7.00;;;18.10;97.30;;;;;;5015667;28;20948;-86
2022/06/29 04:49:45;;;;;;;8.77;7.10;;;18.10;97.30;;;;;;5015225;28;20185;-85
2022/06/29 04:52:12;;;;;;;8.60;7.17;;;18.10;97.30;;;;;;5006384;28;20177;-85
2022/06/29 04:54:37;;;;;;;11.17;7.30;;;18.20;97.30;;;;;;5014525;28;20334;-86
2022/06/29 04:57:08;;;;;;;7.60;6.20;;;18.20;97.30;;;;;;5011612;28;20517;-84
2022/06/29 04:59:35;;;;;;;7.10;6.63;;;18.20;97.30;;;;;;5002830;28;20181;-82
2022/06/29 05:02:04;;;;;;;10.27;6.23;;;18.30;97.30;;;;;;5015057;28;20411;-84
2022/06/29 05:04:30;;;;;;;8.60;7.07;;;18.30;97.30;;;;;;5029691;28;20912;-82
2022/06/29 05:06:56;;;;;;;11.37;6.90;;;18.30;97.30;;;;;;5016268;28;20450;-83
2022/06/29 05:09:21;;;;;;;8.83;6.67;;;18.30;97.30;;;;;;5019246;28;20788;-84
2022/06/29 05:11:47;;;;;;;10.30;6.97;;;18.40;97.30;;;;;;5019198;28;20582;-84
2022/06/29 05:14:13;;;;;;;9.20;6.77;;;18.40;97.30;;;;;;5018981;28;20574;-84
2022/06/29 05:20:20;;;;;;;7.87;6.17;;;18.50;97.30;;;;;;4981504;28;20488;-84
2022/06/29 05:23:07;;;;;;;12.60;6.90;;;18.50;97.30;;;;;;5013820;28;20423;-83
2022/06/29 05:28:08;;;;;;;10.00;7.40;;;18.60;97.30;;;;;;5010317;28;20527;-88
2022/06/29 05:34:26;;;;;;;11.07;7.47;;;18.70;97.30;;;;;;4918272;28;20409;-88
2022/06/29 05:37:27;;;;;;;7.33;6.90;;;18.80;97.30;;;;;;4978493;28;20475;-87
2022/06/29 05:40:37;;;;;;;10.67;6.87;;;18.80;97.30;;;;;;4882112;29;20458;-87
2022/06/29 05:43:37;;;;;;;9.40;6.97;;;18.90;97.30;;;;;;4845656;29;20419;-88
2022/06/29 05:49:45;;;;;;;10.10;7.33;;;18.90;97.30;;;;;;4840029;29;20573;-88
2022/06/29 05:52:26;;;;;;;9.10;7.13;;;19.00;97.30;;;;;;4942669;28;20487;-85
2022/06/29 05:55:37;;;;;;;8.97;7.40;;;19.00;97.30;;;;;;4978470;28;20424;-86
2022/06/29 05:58:47;;;;;;;10.37;7.97;;;19.00;97.30;;;;;;4882157;29;20564;-86
2022/06/29 06:01:16;;;;;;;10.90;7.90;;;19.00;97.30;;;;;;4879111;29;20430;-86
2022/06/29 06:04:07;;;;;;;22.30;7.97;;;19.00;97.30;;;;;;4875640;29;20467;-87
2022/06/29 06:07:27;;;;;;;11.30;8.27;;;19.10;97.30;;;;;;4873434;29;20491;-85
2022/06/29 06:10:07;;;;;;;12.63;8.57;;;19.10;97.30;;;;;;4811826;29;20437;-86
2022/06/29 06:13:07;;;;;;;12.37;8.67;;;19.10;97.30;;;;;;4846271;29;20435;-88
2022/06/29 06:15:46;;;;;;;15.97;8.67;;;19.10;97.30;;;;;;4954670;28;20429;-87
2022/06/29 06:19:06;;;;;;;12.03;8.83;;;19.20;97.30;;;;;;4969834;28;20460;-85
2022/06/29 06:21:47;;;;;;;10.10;8.07;;;19.20;97.30;;;;;;4938235;29;20522;-87
2022/06/29 06:24:47;;;;;;;11.20;9.00;;;19.30;97.30;;;;;;4919266;29;20511;-88
2022/06/29 06:28:26;;;;;;;11.07;8.70;;;19.30;97.30;;;;;;4880722;29;20956;-87
2022/06/29 06:32:07;;;;;;;10.67;8.53;;;19.30;97.30;;;;;;4869573;29;20420;-85
2022/06/29 06:35:07;;;;;;;12.73;8.33;;;19.30;97.30;;;;;;4821673;29;20432;-87
2022/06/29 06:38:25;;;;;;;11.23;8.80;;;19.40;97.30;;;;;;4849546;29;20490;-88
2022/06/29 06:41:37;;;;;;;12.63;8.90;;;19.40;97.30;;;;;;4856554;29;20444;-88
2022/06/29 06:44:27;;;;;;;11.83;8.30;;;19.50;97.30;;;;;;4841102;29;20609;-89
2022/06/29 06:47:16;;;;;;;11.80;9.20;;;19.60;97.30;;;;;;4840674;29;20487;-87
2022/06/29 06:50:07;;;;;;;10.67;8.40;;;19.60;97.30;;;;;;4867875;29;20498;-89
2022/06/29 06:52:36;;;;;;;13.83;9.37;;;19.70;97.30;;;;;;4983261;28;20454;-87
2022/06/29 06:55:17;;;;;;;12.47;8.33;;;19.80;97.30;;;;;;4977172;28;20429;-88
2022/06/29 06:58:42;;;;;;;;;;;;;;;;;;;;;
2022/06/29 07:01:27;;;;;;;12.40;8.97;;;19.90;97.30;;;;;;4904593;29;20426;-87
2022/06/29 07:04:46;;;;;;;;;;;;;;;;;;;;;
2022/06/29 07:07:36;;;;;;;12.17;8.63;;;19.90;97.30;;;;;;4838600;29;20452;-88
2022/06/29 07:10:17;;;;;;;10.27;7.77;;;20.00;97.30;;;;;;4824924;29;20975;-88
2022/06/29 07:13:17;;;;;;;14.30;9.17;;;20.00;97.30;;;;;;4840206;29;20428;-87
2022/06/29 07:15:47;;;;;;;11.13;8.30;;;20.00;97.30;;;;;;4857320;29;20435;-89
2022/06/29 07:18:48;;;;;;;12.77;8.73;;;20.00;97.30;;;;;;4908481;28;20490;-89
2022/06/29 07:22:17;;;;;;;9.97;7.90;;;20.00;97.30;;;;;;4965724;28;20762;-89
2022/06/29 07:24:53;;;;;;;24.37;9.20;;;20.00;97.30;;;;;;4955509;28;20476;-89
2022/06/29 07:27:46;;;;;;;15.03;8.00;;;20.00;97.30;;;;;;4956106;28;20460;-89
2022/06/29 07:30:26;;;;;;;11.50;8.43;;;20.00;97.30;;;;;;4973529;28;20500;-89
2022/06/29 07:33:16;;;;;;;;;;;;;;;;;;;;;
2022/06/29 07:35:47;;;;;;;9.00;6.30;;;20.00;97.30;;;;;;4930563;29;20419;-89
2022/06/29 07:41:56;;;;;;;9.40;6.80;;;19.90;97.30;;;;;;4895409;29;20473;-89
2022/06/29 07:44:36;;;;;;;8.30;5.90;;;19.90;97.30;;;;;;4894380;29;21024;-88
2022/06/29 07:47:07;;;;;;;8.97;6.30;;;19.90;97.30;;;;;;4893488;29;20425;-87
2022/06/29 07:50:06;;;;;;;10.23;6.67;;;19.90;97.30;;;;;;4893179;29;20473;-89
2022/06/29 07:52:47;;;;;;;10.50;7.30;;;20.00;97.30;;;;;;4892473;29;20484;-87
2022/06/29 07:55:16;;;;;;;10.30;7.60;;;20.00;97.30;;;;;;4893141;29;20430;-90
2022/06/29 07:57:47;;;;;;;10.80;7.70;;;20.00;97.30;;;;;;4865880;29;20552;-88
2022/06/29 08:00:17;;;;;;;10.70;7.30;;;20.10;97.30;;;;;;4892404;29;20842;-87
2022/06/29 08:03:27;;;;;;;8.60;6.20;;;20.10;97.30;;;;;;4893267;29;20452;-89
2022/06/29 08:06:36;;;;;;;7.90;6.63;;;20.10;97.30;;;;;;4929119;28;20409;-89
2022/06/29 08:09:37;;;;;;;8.17;6.07;;;20.10;97.30;;;;;;4958193;28;20438;-89
2022/06/29 08:12:48;;;;;;;;;;;;;;;;;;;;;
2022/06/29 08:18:37;;;;;;;10.40;5.57;;;20.00;97.30;;;;;;4980824;28;20531;-89
2022/06/29 08:21:37;;;;;;;9.27;5.40;;;20.00;97.30;;;;;;4976088;28;20437;-89
2022/06/29 08:24:27;;;;;;;8.73;5.80;;;20.10;97.30;;;;;;4981470;28;20967;-89
2022/06/29 08:27:46;;;;;;;7.73;6.27;;;20.10;97.30;;;;;;4963085;28;20461;-89
2022/06/29 08:33:25;;;;;;;10.53;7.43;;;20.20;97.30;;;;;;4857654;29;20472;-88
2022/06/29 08:35:56;;;;;;;9.50;6.20;;;20.20;97.30;;;;;;4842803;29;20423;-88
2022/06/29 08:38:47;;;;;;;9.70;5.97;;;20.20;97.30;;;;;;4912612;28;20476;-89
2022/06/29 08:44:47;;;;;;;9.87;6.20;;;20.10;97.30;;;;;;4910392;29;20425;-89
2022/06/29 08:48:07;;;;;;;6.87;5.17;;;20.00;97.30;;;;;;4966628;28;20478;-89
2022/06/29 08:51:04;;;;;;;8.70;4.87;;;19.90;97.30;;;;;;4971259;28;20436;-89
2022/06/29 08:53:47;;;;;;;6.80;5.20;;;19.90;97.30;;;;;;4976891;28;20433;-89
2022/06/29 08:56:37;;;;;;;9.63;6.63;;;19.80;97.30;;;;;;4977674;28;20514;-90
2022/06/29 08:59:37;;;;;;;6.67;5.60;;;19.80;97.30;;;;;;4899233;29;20472;-89
2022/06/29 09:02:06;;;;;;;7.63;5.20;;;19.80;97.30;;;;;;4844090;29;20472;-88
2022/06/29 09:04:46;;;;;;;7.87;5.80;;;19.80;97.30;;;;;;4899019;29;20414;-89
2022/06/29 09:07:17;;;;;;;7.33;5.53;;;19.80;97.30;;;;;;4898872;29;20420;-88
2022/06/29 09:10:07;;;;;;;15.83;5.60;;;19.80;97.30;;;;;;4898798;29;20536;-89
2022/06/29 09:13:16;;;;;;;9.13;5.80;;;19.80;97.30;;;;;;4904470;29;20492;-89
2022/06/29 09:16:17;;;;;;;7.10;5.20;;;19.80;97.30;;;;;;4907982;28;20420;-89
2022/06/29 09:19:37;;;;;;;6.67;5.70;;;19.80;97.30;;;;;;4919495;29;20483;-89
2022/06/29 09:26:35;;;;;;;8.10;5.20;;;19.80;97.30;;;;;;4879294;29;21237;-89
2022/06/29 09:28:56;;;;;;;;;;;;;;;;;;;;;
2022/06/29 09:31:47;;;;;;;7.13;5.20;;;19.70;97.30;;;;;;4828749;29;20449;-88
2022/06/29 09:34:37;;;;;;;6.90;5.00;;;19.70;97.30;;;;;;4808685;29;20425;-88
2022/06/29 09:37:35;;;;;;;8.97;4.57;;;19.70;97.30;;;;;;4812778;29;20433;-89
2022/06/29 09:40:07;;;;;;;7.17;4.80;;;19.80;97.30;;;;;;4795491;29;20462;-89
2022/06/29 09:43:27;;;;;;;7.43;5.10;;;19.80;97.30;;;;;;4833173;29;20424;-87
2022/06/29 09:47:36;;;;;;;3.87;3.60;;;19.80;97.30;;;;;;4921682;28;20491;-87
2022/06/29 09:52:57;;;;;;;5.60;4.47;;;19.90;97.30;;;;;;4901590;29;20419;-89
2022/06/29 09:56:18;;;;;;;7.00;4.80;;;19.90;97.30;;;;;;4969069;28;20410;-86
2022/06/29 10:02:46;;;;;;;5.00;4.03;;;20.00;97.30;;;;;;4997502;28;20456;-85
2022/06/29 10:08:39;;;;;;;;;;;;;;;;;;;;;
2022/06/29 10:14:25;;;;;;;5.27;4.03;;;20.20;97.30;;;;;;4894886;29;20432;-90
2022/06/29 10:17:26;;;;;;;7.70;5.20;;;20.20;97.30;;;;;;4894309;29;20783;-89
2022/06/29 10:20:47;;;;;;;5.60;4.17;;;20.30;97.30;;;;;;4898464;28;20480;-90
2022/06/29 10:23:57;;;;;;;7.77;5.07;;;20.40;97.30;;;;;;4914181;29;20419;-87
2022/06/29 10:30:28;;;;;;;5.90;5.03;;;20.70;97.30;;;;;;4876277;29;20997;-89
2022/06/29 10:36:59;;;;;;;6.03;4.83;;;21.00;97.30;;;;;;4930563;29;20821;-89
2022/06/29 10:39:27;;;;;;;6.17;4.43;;;21.20;97.30;;;;;;4931001;29;20510;-89
2022/06/29 10:45:57;;;;;;;7.90;4.70;;;21.60;97.30;;;;;;4948891;29;20446;-89
2022/06/29 10:48:56;;;;;;;5.20;4.27;;;21.90;97.30;;;;;;4909508;28;20424;-87
2022/06/29 10:58:37;;;;;;;6.73;4.63;;;22.40;97.30;;;;;;4840418;29;20496;-90
2022/06/29 11:04:47;;;;;;;6.60;4.90;;;22.50;97.20;;;;;;4887801;29;20512;-89
2022/06/29 11:13:03;;;;;;;9.37;5.90;;;22.40;97.30;;;;;;4893878;29;20497;-88
2022/06/29 11:15:47;;;;;;;7.63;5.67;;;22.40;97.30;;;;;;4990131;28;20919;-88
2022/06/29 11:18:16;;;;;;;7.20;5.77;;;22.50;97.30;;;;;;4971519;28;20485;-87
2022/06/29 11:20:44;;;;;;;9.93;6.27;;;22.70;97.30;;;;;;4976297;28;20520;-88
2022/06/29 11:23:14;;;;;;;11.63;6.30;;;22.80;97.30;;;;;;4974564;28;20417;-88
2022/06/29 11:25:46;;;;;;;9.77;6.50;;;23.00;97.30;;;;;;4972839;28;20417;-88
2022/06/29 11:28:13;;;;;;;11.80;6.17;;;23.10;97.30;;;;;;4977439;28;20482;-89
2022/06/29 11:30:39;;;;;;;9.20;6.10;;;23.20;97.10;;;;;;4974523;28;20476;-88
2022/06/29 11:33:11;;;;;;;10.73;6.33;;;23.20;97.20;;;;;;5003382;28;20420;-88
2022/06/29 11:35:38;;;;;;;8.60;6.80;;;23.30;96.80;;;;;;4994189;28;20418;-87
2022/06/29 11:38:05;;;;;;;9.10;6.47;;;23.30;96.90;;;;;;4975477;28;20453;-88
2022/06/29 11:40:35;;;;;;;11.83;7.37;;;23.30;96.80;;;;;;4978396;28;20437;-88
2022/06/29 11:43:08;;;;;;;11.60;6.97;;;23.20;96.70;;;;;;4973952;28;20421;-88
2022/06/29 11:45:39;;;;;;;9.50;6.30;;;23.20;97.20;;;;;;4987721;28;20411;-89
2022/06/29 11:48:15;;;;;;;9.83;6.43;;;23.20;97.00;;;;;;4993815;28;20512;-88
2022/06/29 11:50:46;;;;;;;14.10;8.07;;;23.30;97.00;;;;;;4980210;28;20468;-88
2022/06/29 11:53:13;;;;;;;11.73;7.50;;;23.30;96.40;;;;;;4976368;28;20421;-88
2022/06/29 11:55:45;;;;;;;10.90;7.20;;;23.30;96.20;;;;;;4973402;28;20422;-88
2022/06/29 11:58:16;;;;;;;9.47;7.53;;;23.20;96.70;;;;;;4979694;28;20451;-88
2022/06/29 12:00:43;;;;;;;14.00;8.70;;;23.20;97.30;;;;;;4971812;28;20444;-90
2022/06/29 12:03:13;;;;;;;12.80;8.17;;;23.20;97.30;;;;;;4966086;28;20460;-89
2022/06/29 12:05:57;;;;;;;13.30;8.70;;;23.20;97.30;;;;;;4968917;28;20488;-92
2022/06/29 12:08:23;;;;;;;13.87;8.67;;;23.20;97.30;;;;;;4967819;28;20445;-89
2022/06/29 12:10:51;;;;;;;15.40;9.57;;;23.30;97.30;;;;;;4971356;28;20440;-88
2022/06/29 12:13:17;;;;;;;13.00;8.70;;;23.30;97.30;;;;;;4970973;28;20936;-89
2022/06/29 12:15:45;;;;;;;11.97;9.40;;;23.30;97.20;;;;;;4973140;28;20425;-91
2022/06/29 12:18:10;;;;;;;12.57;8.53;;;23.30;97.30;;;;;;4991597;28;20471;-88
2022/06/29 12:20:36;;;;;;;14.10;9.40;;;23.20;97.30;;;;;;4978812;28;20445;-89
2022/06/29 12:23:01;;;;;;;12.93;9.30;;;23.20;97.30;;;;;;4987886;28;20173;-90
2022/06/29 12:25:27;;;;;;;14.00;9.17;;;23.20;97.30;;;;;;4983893;28;20240;-88
2022/06/29 12:27:52;;;;;;;14.47;9.27;;;23.20;97.30;;;;;;4970559;28;20304;-91
2022/06/29 12:30:18;;;;;;;22.20;9.67;;;23.10;97.30;;;;;;4988522;28;20692;-90
2022/06/29 12:32:43;;;;;;;20.63;9.23;;;23.10;97.30;;;;;;4975106;28;20228;-90
2022/06/29 12:35:11;;;;;;;13.17;9.80;;;23.10;97.30;;;;;;4965747;28;20204;-88
2022/06/29 12:37:46;;;;;;;11.80;9.10;;;23.00;97.30;;;;;;4971210;28;20237;-90
2022/06/29 12:40:12;;;;;;;14.17;9.67;;;23.00;97.30;;;;;;4997669;23;20494;-88
2022/06/29 12:42:39;;;;;;;15.30;9.97;;;23.00;97.30;;;;;;4992414;28;20425;-86
2022/06/29 12:45:06;;;;;;;14.43;10.03;;;22.90;97.30;;;;;;4973379;28;20856;-86
2022/06/29 12:47:32;;;;;;;16.40;10.30;;;22.90;97.30;;;;;;4989227;28;20533;-85
2022/06/29 12:50:01;;;;;;;13.47;9.83;;;22.90;97.30;;;;;;4991352;28;20429;-86
2022/06/29 12:52:26;;;;;;;14.10;9.93;;;22.90;97.30;;;;;;4994979;28;20181;-86
2022/06/29 12:54:53;;;;;;;14.70;10.83;;;22.90;97.30;;;;;;4993049;28;20409;-86
2022/06/29 12:57:19;;;;;;;14.13;10.37;;;23.00;97.30;;;;;;4992882;28;20272;-85
2022/06/29 12:59:46;;;;;;;13.20;10.20;;;23.10;97.30;;;;;;4990590;28;20469;-85
2022/06/29 13:02:12;;;;;;;18.17;11.30;;;23.10;97.30;;;;;;4989346;28;20188;-86
2022/06/29 13:04:37;;;;;;;15.40;11.47;;;23.20;97.30;;;;;;4992495;28;20420;-88
2022/06/29 13:07:03;;;;;;;16.20;11.50;;;23.30;97.30;;;;;;4987433;28;20436;-86
2022/06/29 13:09:29;;;;;;;13.03;10.20;;;23.40;97.30;;;;;;4990287;28;20477;-85
2022/06/29 13:11:55;;;;;;;15.33;10.43;;;23.50;97.30;;;;;;4986770;28;20221;-86
2022/06/29 13:14:20;;;;;;;15.57;10.80;;;23.60;97.30;;;;;;4986559;28;20730;-87
2022/06/29 13:16:47;;;;;;;15.40;11.00;;;23.70;97.30;;;;;;4989867;28;20674;-86
2022/06/29 13:19:13;;;;;;;17.00;10.80;;;23.60;97.20;;;;;;4990076;28;20194;-85
2022/06/29 13:21:38;;;;;;;13.30;10.10;;;23.50;97.30;;;;;;4996041;28;20415;-92
2022/06/29 13:24:07;;;;;;;14.03;10.77;;;23.40;97.30;;;;;;4983117;28;20445;-89
2022/06/29 13:26:46;;;;;;;13.30;10.30;;;23.40;97.30;;;;;;4981234;28;20189;-90
2022/06/29 13:29:17;;;;;;;17.40;11.80;;;23.40;97.30;;;;;;5005169;23;20440;-85
2022/06/29 13:32:28;;;;;;;14.87;11.70;;;23.40;97.30;;;;;;5014253;28;20436;-87
2022/06/29 13:35:59;;;;;;;;;;;;;;;;;;;;;
2022/06/29 13:39:09;;;;;;;14.40;9.83;;;23.90;97.30;;;;;;4915203;29;20463;-89
2022/06/29 13:44:58;;;;;;;12.70;10.00;;;24.00;97.30;;;;;;4889292;29;20429;-89
2022/06/29 13:47:28;;;;;;;12.77;10.33;;;23.90;97.30;;;;;;4894888;29;20420;-88
2022/06/29 13:50:17;;;;;;;15.47;9.80;;;23.90;97.20;;;;;;4879942;29;20499;-89
2022/06/29 13:53:16;;;;;;;12.33;9.13;;;23.80;97.30;;;;;;4884728;29;20458;-87
2022/06/29 13:56:08;;;;;;;14.63;10.17;;;23.80;97.30;;;;;;4862673;29;20466;-89
2022/06/29 14:35:31;;;;;;;13.40;8.90;;;25.10;95.70;;;;;;1168274;22;20799;-83
2022/06/29 14:37:57;;;;;;;10.43;8.37;;;25.40;95.20;;;;;;5004552;28;20483;-86
2022/06/29 14:40:23;;;;;;;14.57;9.03;;;25.60;93.50;;;;;;5011937;28;20415;-85
2022/06/29 14:42:50;;;;;;;13.50;10.30;;;25.60;93.20;;;;;;5013909;28;20226;-85
2022/06/29 15:11:08;;;;;;;11.73;8.80;;;24.20;96.00;;;;;;5025934;28;20740;-83
2022/06/29 15:13:35;;;;;;;9.63;7.53;;;24.20;96.20;;;;;;5014391;28;20419;-84
2022/06/29 15:16:01;;;;;;;13.17;7.60;;;24.20;96.00;;;;;;5034048;28;20268;-83
2022/06/29 15:18:26;;;;;;;12.17;7.90;;;24.20;95.90;;;;;;5036234;28;20497;-84
2022/06/29 15:20:52;;;;;;;9.80;7.40;;;24.20;96.00;;;;;;5028035;28;20178;-84
2022/06/29 15:23:18;;;;;;;9.40;7.60;;;24.20;96.00;;;;;;5025248;28;20180;-86
2022/06/29 15:25:43;;;;;;;13.23;8.47;;;24.20;96.10;;;;;;5032639;28;20195;-84
2022/06/29 15:28:09;;;;;;;12.43;7.47;;;24.20;96.30;;;;;;5014323;28;20200;-89
2022/06/29 15:30:38;;;;;;;10.23;7.73;;;24.20;96.00;;;;;;5017973;28;20551;-88
2022/06/29 15:33:06;;;;;;;10.10;7.80;;;24.20;96.40;;;;;;5018204;28;20275;-88
2022/06/29 15:41:01;;;;;;;10.03;7.97;;;24.10;96.20;;;;;;5034318;28;20430;-90
2022/06/29 15:43:26;;;;;;;8.80;7.03;;;24.00;96.10;;;;;;5016298;28;20503;-90
2022/06/29 15:45:52;;;;;;;10.50;7.67;;;23.90;96.20;;;;;;5016595;28;20451;-91
2022/06/29 15:48:17;;;;;;;12.47;7.90;;;23.80;96.10;;;;;;5015886;28;20200;-90
2022/06/29 15:50:44;;;;;;;10.90;7.63;;;23.80;96.50;;;;;;5016192;28;20187;-90
2022/06/29 15:55:55;;;;;;;10.27;7.63;;;23.70;96.80;;;;;;5034417;28;20411;-88
2022/06/29 15:58:20;;;;;;;10.70;7.60;;;23.70;96.90;;;;;;5016587;28;20451;-90
2022/06/29 16:00:46;;;;;;;10.33;7.23;;;23.60;96.80;;;;;;5017442;28;20180;-88
2022/06/29 16:03:12;;;;;;;11.73;7.83;;;23.60;96.90;;;;;;5016752;28;20211;-87
2022/06/29 16:05:38;;;;;;;9.30;7.33;;;23.60;97.00;;;;;;5016615;28;20764;-89
2022/06/29 16:08:04;;;;;;;11.50;7.60;;;23.60;96.90;;;;;;5017126;28;20207;-90
2022/06/29 16:10:29;;;;;;;13.13;8.70;;;23.60;97.00;;;;;;5016629;28;20277;-89
2022/06/29 16:12:55;;;;;;;15.23;9.20;;;23.60;97.20;;;;;;5016949;28;20431;-87
2022/06/29 16:15:21;;;;;;;13.10;8.63;;;23.50;97.10;;;;;;5016617;28;20212;-88
2022/06/29 16:17:46;;;;;;;12.60;8.23;;;23.50;97.10;;;;;;5016566;28;20281;-88
2022/06/29 16:20:12;;;;;;;12.73;8.50;;;23.50;97.30;;;;;;5016056;28;20184;-87
2022/06/29 16:22:40;;;;;;;14.90;9.03;;;23.50;97.30;;;;;;5016898;28;20177;-90
2022/06/29 16:25:07;;;;;;;12.23;8.30;;;23.50;97.30;;;;;;5016555;28;20180;-88
2022/06/29 16:27:33;;;;;;;12.80;8.57;;;23.40;97.30;;;;;;5016539;28;20507;-88
2022/06/29 16:29:59;;;;;;;13.80;8.37;;;23.40;97.30;;;;;;5017168;28;20458;-88
2022/06/29 16:32:24;;;;;;;13.40;8.70;;;23.40;97.30;;;;;;5016739;28;20446;-88
2022/06/29 16:34:50;;;;;;;15.77;8.07;;;23.40;97.30;;;;;;5016629;28;20419;-90
2022/06/29 16:37:16;;;;;;;12.10;7.67;;;23.30;97.30;;;;;;5016826;28;20224;-90
2022/06/29 16:39:42;;;;;;;12.50;8.27;;;23.40;97.30;;;;;;5016438;28;20489;-90
2022/06/29 16:42:08;;;;;;;10.73;7.47;;;23.40;97.30;;;;;;5016876;28;20173;-90
2022/06/29 16:44:34;;;;;;;12.43;6.70;;;23.40;97.30;;;;;;5016519;28;20442;-89
2022/06/29 16:47:00;;;;;;;10.97;7.37;;;23.40;97.30;;;;;;5016632;28;20943;-89
2022/06/29 16:49:26;;;;;;;15.17;8.10;;;23.40;97.10;;;;;;5016925;28;20560;-89
2022/06/29 16:51:52;;;;;;;13.03;8.40;;;23.40;97.30;;;;;;5016500;28;20177;-89
2022/06/29 16:54:17;;;;;;;9.77;7.67;;;23.30;97.30;;;;;;5017393;28;20446;-90
2022/06/29 16:56:44;;;;;;;12.10;7.27;;;23.40;97.30;;;;;;5015010;28;20439;-90